Gures — CQIJ9 — position and weather

sailwx.info

Track history (hours):
 
Tides and Currents Weather Stations Pressure Air Temp Water Temp Dewpoint Dewpoint Depression Visibility Wind Speed Wind Dir Waves Ship Positions

Gures

Last reported at 2018-Jul-21 11:58 UTC. Time now 2018-Jul-21 13:31 UTC.
Position N 36°41' W 008°53'.

Length 115 m; draft 6.3 m.

Type: Cargo ship. MMSI: 255805981.

Date/timePositionNaut miles runAvg speedWind from/ knotsBaromVisibWave heightAir tempDewpointWater temp
2018-Jul-21 11:58N 36°41' W 008°53'3311.0
2018-Jul-21 09:00N 36°31' W 008°14'13011.3
2018-Jul-20 21:26N 35°58' W 005°38'4 9.7
2018-Jul-20 20:59N 35°59' W 005°33'5 9.8
2018-Jul-20 20:30N 36°00' W 005°27'4 8.9
2018-Jul-20 20:00N 36°02' W 005°22'4 8.4
2018-Jul-20 19:30N 36°03' W 005°17'5 9.6
2018-Jul-20 19:00N 36°05' W 005°11'610.7
2018-Jul-20 18:25N 36°08' W 005°05'43 1.2
2018-Jul-19 06:51N 35°54' W 005°55'514.1
2018-Jul-19 06:30N 35°53' W 006°01'  
2018-Jul-13 12:27N 35°59' W 005°27'5 9.4
2018-Jul-13 11:57N 35°59' W 005°22'4 9.9
2018-Jul-13 11:30N 35°55' W 005°18'1 2.0
2018-Jul-13 10:49N 35°54' W 005°19'221 9.1
2018-Jul-12 10:42N 37°15' W 001°03'312.8
2018-Jul-12 10:30N 37°16' W 001°01'612.9
2018-Jul-12 10:00N 37°20' W 000°55'613.0
2018-Jul-12 09:30N 37°25' W 000°49'612.8
2018-Jul-12 09:00N 37°29' W 000°42'612.7
2018-Jul-12 08:30N 37°33' W 000°36'612.2
2018-Jul-12 08:00N 37°38' W 000°32'612.8
2018-Jul-12 07:30N 37°43' W 000°27'612.7
2018-Jul-12 07:00N 37°48' W 000°23'612.8
2018-Jul-12 06:30N 37°53' W 000°18'612.6
2018-Jul-12 06:00N 37°59' W 000°14'612.5
2018-Jul-12 05:30N 38°04' W 000°09'  
Track history (hours):
 
Tides and Currents Weather Stations Pressure Air Temp Water Temp Dewpoint Dewpoint Depression Visibility Wind Speed Wind Dir Waves Ship Positions

Gures

Last reported at 2018-Jul-21 11:58 UTC. Time now 2018-Jul-21 13:31 UTC.
Position N 36°41' W 008°53'.

Length 115 m; draft 6.3 m.

Type: Cargo ship. MMSI: 255805981.

Date/timePositionNaut miles runAvg speedWind from/ knotsBaromVisibWave heightAir tempDewpointWater temp
2018-Jul-21 11:58N 36°41' W 008°53'3311.0
2018-Jul-21 09:00N 36°31' W 008°14'13011.3
2018-Jul-20 21:26N 35°58' W 005°38'4 9.7
2018-Jul-20 20:59N 35°59' W 005°33'5 9.8
2018-Jul-20 20:30N 36°00' W 005°27'4 8.9
2018-Jul-20 20:00N 36°02' W 005°22'4 8.4
2018-Jul-20 19:30N 36°03' W 005°17'5 9.6
2018-Jul-20 19:00N 36°05' W 005°11'610.7
2018-Jul-20 18:25N 36°08' W 005°05'43 1.2
2018-Jul-19 06:51N 35°54' W 005°55'514.1
2018-Jul-19 06:30N 35°53' W 006°01'  
2018-Jul-13 12:27N 35°59' W 005°27'5 9.4
2018-Jul-13 11:57N 35°59' W 005°22'4 9.9
2018-Jul-13 11:30N 35°55' W 005°18'1 2.0
2018-Jul-13 10:49N 35°54' W 005°19'221 9.1
2018-Jul-12 10:42N 37°15' W 001°03'312.8
2018-Jul-12 10:30N 37°16' W 001°01'612.9
2018-Jul-12 10:00N 37°20' W 000°55'613.0
2018-Jul-12 09:30N 37°25' W 000°49'612.8
2018-Jul-12 09:00N 37°29' W 000°42'612.7
2018-Jul-12 08:30N 37°33' W 000°36'612.2
2018-Jul-12 08:00N 37°38' W 000°32'612.8
2018-Jul-12 07:30N 37°43' W 000°27'612.7
2018-Jul-12 07:00N 37°48' W 000°23'612.8
2018-Jul-12 06:30N 37°53' W 000°18'612.6
2018-Jul-12 06:00N 37°59' W 000°14'612.5
2018-Jul-12 05:30N 38°04' W 000°09'  

Dump ship's entire track history